sensor_id;sensor_type;location;lat;lon;timestamp;P1;durP1;ratioP1;P2;durP2;ratioP2
52620;SDS011;38515;53.160;6.990;2022-07-12T00:01:56;17.35;;;14.95;;
52620;SDS011;38515;53.160;6.990;2022-07-12T00:04:22;16.67;;;13.70;;
52620;SDS011;38515;53.160;6.990;2022-07-12T00:06:48;15.98;;;13.77;;
52620;SDS011;38515;53.160;6.990;2022-07-12T00:09:14;14.35;;;12.60;;
52620;SDS011;38515;53.160;6.990;2022-07-12T00:11:40;13.93;;;12.52;;
52620;SDS011;38515;53.160;6.990;2022-07-12T00:14:07;13.98;;;12.57;;
52620;SDS011;38515;53.160;6.990;2022-07-12T00:16:34;14.88;;;13.35;;
52620;SDS011;38515;53.160;6.990;2022-07-12T00:19:01;14.23;;;12.77;;
52620;SDS011;38515;53.160;6.990;2022-07-12T00:21:26;17.38;;;14.05;;
52620;SDS011;38515;53.160;6.990;2022-07-12T00:23:52;15.52;;;13.95;;
52620;SDS011;38515;53.160;6.990;2022-07-12T00:26:18;18.02;;;14.18;;
52620;SDS011;38515;53.160;6.990;2022-07-12T00:28:44;12.77;;;11.52;;
52620;SDS011;38515;53.160;6.990;2022-07-12T00:31:10;14.27;;;12.75;;
52620;SDS011;38515;53.160;6.990;2022-07-12T00:33:36;16.55;;;14.85;;
52620;SDS011;38515;53.160;6.990;2022-07-12T00:36:02;16.15;;;14.20;;
52620;SDS011;38515;53.160;6.990;2022-07-12T00:38:28;14.07;;;12.65;;
52620;SDS011;38515;53.160;6.990;2022-07-12T00:40:54;14.43;;;12.98;;
52620;SDS011;38515;53.160;6.990;2022-07-12T00:43:20;16.80;;;15.07;;
52620;SDS011;38515;53.160;6.990;2022-07-12T00:45:46;15.18;;;13.60;;
52620;SDS011;38515;53.160;6.990;2022-07-12T00:48:11;14.32;;;12.88;;
52620;SDS011;38515;53.160;6.990;2022-07-12T00:50:38;16.67;;;14.88;;
52620;SDS011;38515;53.160;6.990;2022-07-12T00:53:04;14.63;;;13.00;;
52620;SDS011;38515;53.160;6.990;2022-07-12T00:55:31;13.27;;;11.98;;
52620;SDS011;38515;53.160;6.990;2022-07-12T00:57:57;14.30;;;12.82;;
52620;SDS011;38515;53.160;6.990;2022-07-12T01:00:24;14.50;;;12.98;;
52620;SDS011;38515;53.160;6.990;2022-07-12T01:02:52;15.55;;;13.80;;
52620;SDS011;38515;53.160;6.990;2022-07-12T01:05:19;18.75;;;14.88;;
52620;SDS011;38515;53.160;6.990;2022-07-12T01:07:45;16.85;;;13.98;;
52620;SDS011;38515;53.160;6.990;2022-07-12T01:10:11;15.23;;;13.40;;
52620;SDS011;38515;53.160;6.990;2022-07-12T01:12:37;17.95;;;12.75;;
52620;SDS011;38515;53.160;6.990;2022-07-12T01:15:05;13.63;;;12.20;;
52620;SDS011;38515;53.160;6.990;2022-07-12T01:17:32;14.65;;;12.13;;
52620;SDS011;38515;53.160;6.990;2022-07-12T01:19:58;13.88;;;11.80;;
52620;SDS011;38515;53.160;6.990;2022-07-12T01:22:26;14.18;;;12.68;;
52620;SDS011;38515;53.160;6.990;2022-07-12T01:24:55;12.95;;;10.93;;
52620;SDS011;38515;53.160;6.990;2022-07-12T01:27:21;13.05;;;11.57;;
52620;SDS011;38515;53.160;6.990;2022-07-12T01:29:47;12.82;;;11.43;;
52620;SDS011;38515;53.160;6.990;2022-07-12T01:32:12;15.25;;;12.57;;
52620;SDS011;38515;53.160;6.990;2022-07-12T01:34:53;14.95;;;11.18;;
52620;SDS011;38515;53.160;6.990;2022-07-12T01:37:20;14.63;;;12.25;;
52620;SDS011;38515;53.160;6.990;2022-07-12T01:39:48;13.15;;;11.10;;
52620;SDS011;38515;53.160;6.990;2022-07-12T01:42:16;12.73;;;11.43;;
52620;SDS011;38515;53.160;6.990;2022-07-12T01:44:41;15.60;;;10.90;;
52620;SDS011;38515;53.160;6.990;2022-07-12T01:47:07;11.60;;;10.40;;
52620;SDS011;38515;53.160;6.990;2022-07-12T01:49:34;13.23;;;11.23;;
52620;SDS011;38515;53.160;6.990;2022-07-12T01:52:00;11.77;;;10.57;;
52620;SDS011;38515;53.160;6.990;2022-07-12T01:54:26;13.05;;;9.82;;
52620;SDS011;38515;53.160;6.990;2022-07-12T01:56:52;11.57;;;10.38;;
52620;SDS011;38515;53.160;6.990;2022-07-12T01:59:19;11.15;;;9.73;;
52620;SDS011;38515;53.160;6.990;2022-07-12T02:01:45;13.95;;;10.10;;
52620;SDS011;38515;53.160;6.990;2022-07-12T02:04:11;11.68;;;10.48;;
52620;SDS011;38515;53.160;6.990;2022-07-12T02:06:40;12.55;;;10.75;;
52620;SDS011;38515;53.160;6.990;2022-07-12T02:09:07;11.70;;;10.40;;
52620;SDS011;38515;53.160;6.990;2022-07-12T02:11:33;10.70;;;9.45;;
52620;SDS011;38515;53.160;6.990;2022-07-12T02:13:59;10.93;;;9.43;;
52620;SDS011;38515;53.160;6.990;2022-07-12T02:16:25;9.88;;;8.57;;
52620;SDS011;38515;53.160;6.990;2022-07-12T02:18:51;9.90;;;8.10;;
52620;SDS011;38515;53.160;6.990;2022-07-12T02:21:17;10.48;;;8.93;;
52620;SDS011;38515;53.160;6.990;2022-07-12T02:23:42;9.95;;;8.73;;
52620;SDS011;38515;53.160;6.990;2022-07-12T02:26:08;10.77;;;7.75;;
52620;SDS011;38515;53.160;6.990;2022-07-12T02:28:34;9.73;;;8.38;;
52620;SDS011;38515;53.160;6.990;2022-07-12T02:31:00;9.18;;;7.60;;
52620;SDS011;38515;53.160;6.990;2022-07-12T02:33:26;9.50;;;8.45;;
52620;SDS011;38515;53.160;6.990;2022-07-12T02:35:52;12.00;;;8.48;;
52620;SDS011;38515;53.160;6.990;2022-07-12T02:38:18;9.80;;;8.00;;
52620;SDS011;38515;53.160;6.990;2022-07-12T02:40:45;9.95;;;7.93;;
52620;SDS011;38515;53.160;6.990;2022-07-12T02:43:18;10.77;;;9.60;;
52620;SDS011;38515;53.160;6.990;2022-07-12T02:45:51;10.05;;;8.57;;
52620;SDS011;38515;53.160;6.990;2022-07-12T02:48:18;9.82;;;8.15;;
52620;SDS011;38515;53.160;6.990;2022-07-12T02:50:44;9.50;;;8.20;;
52620;SDS011;38515;53.160;6.990;2022-07-12T02:53:11;11.15;;;8.60;;
52620;SDS011;38515;53.160;6.990;2022-07-12T02:55:37;10.30;;;9.13;;
52620;SDS011;38515;53.160;6.990;2022-07-12T02:58:04;9.35;;;7.72;;
52620;SDS011;38515;53.160;6.990;2022-07-12T03:00:31;9.40;;;8.20;;
52620;SDS011;38515;53.160;6.990;2022-07-12T03:02:57;9.50;;;8.48;;
52620;SDS011;38515;53.160;6.990;2022-07-12T03:05:23;10.05;;;8.93;;
52620;SDS011;38515;53.160;6.990;2022-07-12T03:07:48;9.57;;;8.05;;
52620;SDS011;38515;53.160;6.990;2022-07-12T03:10:14;8.88;;;7.70;;
52620;SDS011;38515;53.160;6.990;2022-07-12T03:12:40;9.20;;;8.25;;
52620;SDS011;38515;53.160;6.990;2022-07-12T03:15:06;8.80;;;7.80;;
52620;SDS011;38515;53.160;6.990;2022-07-12T03:17:32;10.15;;;8.55;;
52620;SDS011;38515;53.160;6.990;2022-07-12T03:19:59;12.98;;;10.27;;
52620;SDS011;38515;53.160;6.990;2022-07-12T03:22:25;10.63;;;8.43;;
52620;SDS011;38515;53.160;6.990;2022-07-12T03:24:51;11.98;;;10.35;;
52620;SDS011;38515;53.160;6.990;2022-07-12T03:27:17;11.85;;;8.93;;
52620;SDS011;38515;53.160;6.990;2022-07-12T03:29:43;13.68;;;11.73;;
52620;SDS011;38515;53.160;6.990;2022-07-12T03:32:09;11.75;;;10.20;;
52620;SDS011;38515;53.160;6.990;2022-07-12T03:34:35;10.73;;;9.60;;
52620;SDS011;38515;53.160;6.990;2022-07-12T03:37:02;13.43;;;9.32;;
52620;SDS011;38515;53.160;6.990;2022-07-12T03:39:28;12.60;;;10.30;;
52620;SDS011;38515;53.160;6.990;2022-07-12T03:41:54;13.45;;;10.38;;
52620;SDS011;38515;53.160;6.990;2022-07-12T03:44:20;11.35;;;8.10;;
52620;SDS011;38515;53.160;6.990;2022-07-12T03:46:46;11.98;;;9.98;;
52620;SDS011;38515;53.160;6.990;2022-07-12T03:49:12;17.38;;;12.38;;
52620;SDS011;38515;53.160;6.990;2022-07-12T03:51:39;25.05;;;16.83;;
52620;SDS011;38515;53.160;6.990;2022-07-12T03:54:05;22.60;;;15.85;;
52620;SDS011;38515;53.160;6.990;2022-07-12T03:56:34;22.00;;;14.57;;
52620;SDS011;38515;53.160;6.990;2022-07-12T03:59:19;26.38;;;16.88;;
52620;SDS011;38515;53.160;6.990;2022-07-12T04:01:45;30.55;;;18.33;;
52620;SDS011;38515;53.160;6.990;2022-07-12T04:04:11;27.35;;;18.30;;
52620;SDS011;38515;53.160;6.990;2022-07-12T04:06:37;27.95;;;19.10;;
52620;SDS011;38515;53.160;6.990;2022-07-12T04:09:04;23.70;;;15.63;;
52620;SDS011;38515;53.160;6.990;2022-07-12T04:11:31;21.08;;;16.17;;
52620;SDS011;38515;53.160;6.990;2022-07-12T04:13:57;15.82;;;13.60;;
52620;SDS011;38515;53.160;6.990;2022-07-12T04:16:24;18.95;;;12.80;;
52620;SDS011;38515;53.160;6.990;2022-07-12T04:18:51;19.08;;;15.55;;
52620;SDS011;38515;53.160;6.990;2022-07-12T04:21:17;16.40;;;14.18;;
52620;SDS011;38515;53.160;6.990;2022-07-12T04:23:43;16.25;;;11.70;;
52620;SDS011;38515;53.160;6.990;2022-07-12T04:26:09;11.40;;;10.10;;
52620;SDS011;38515;53.160;6.990;2022-07-12T04:28:35;12.73;;;10.73;;
52620;SDS011;38515;53.160;6.990;2022-07-12T04:31:01;12.77;;;11.48;;
52620;SDS011;38515;53.160;6.990;2022-07-12T04:33:27;14.13;;;11.23;;
52620;SDS011;38515;53.160;6.990;2022-07-12T04:35:53;16.13;;;13.38;;
52620;SDS011;38515;53.160;6.990;2022-07-12T04:38:19;13.77;;;12.23;;
52620;SDS011;38515;53.160;6.990;2022-07-12T04:40:45;14.90;;;13.10;;
52620;SDS011;38515;53.160;6.990;2022-07-12T04:43:11;14.68;;;12.98;;
52620;SDS011;38515;53.160;6.990;2022-07-12T04:45:37;17.23;;;13.90;;
52620;SDS011;38515;53.160;6.990;2022-07-12T04:48:03;18.17;;;13.98;;
52620;SDS011;38515;53.160;6.990;2022-07-12T04:50:29;20.00;;;15.55;;
52620;SDS011;38515;53.160;6.990;2022-07-12T04:52:55;15.15;;;13.57;;
52620;SDS011;38515;53.160;6.990;2022-07-12T04:55:20;15.75;;;13.70;;
52620;SDS011;38515;53.160;6.990;2022-07-12T04:57:46;14.65;;;13.25;;
52620;SDS011;38515;53.160;6.990;2022-07-12T05:00:12;15.32;;;12.38;;
52620;SDS011;38515;53.160;6.990;2022-07-12T05:02:38;15.38;;;13.50;;
52620;SDS011;38515;53.160;6.990;2022-07-12T05:05:04;15.57;;;13.55;;
52620;SDS011;38515;53.160;6.990;2022-07-12T05:07:30;16.35;;;12.48;;
52620;SDS011;38515;53.160;6.990;2022-07-12T05:09:56;12.93;;;11.52;;
52620;SDS011;38515;53.160;6.990;2022-07-12T05:12:22;13.02;;;11.23;;
52620;SDS011;38515;53.160;6.990;2022-07-12T05:14:48;13.45;;;11.27;;
52620;SDS011;38515;53.160;6.990;2022-07-12T05:17:14;12.80;;;10.98;;
52620;SDS011;38515;53.160;6.990;2022-07-12T05:19:40;11.52;;;10.02;;
52620;SDS011;38515;53.160;6.990;2022-07-12T05:22:05;12.20;;;10.55;;
52620;SDS011;38515;53.160;6.990;2022-07-12T05:24:31;10.32;;;9.25;;
52620;SDS011;38515;53.160;6.990;2022-07-12T05:26:57;10.48;;;9.43;;
52620;SDS011;38515;53.160;6.990;2022-07-12T05:29:24;11.55;;;9.88;;
52620;SDS011;38515;53.160;6.990;2022-07-12T05:31:49;12.77;;;9.40;;
52620;SDS011;38515;53.160;6.990;2022-07-12T05:34:15;10.25;;;9.15;;
52620;SDS011;38515;53.160;6.990;2022-07-12T05:36:41;9.52;;;8.52;;
52620;SDS011;38515;53.160;6.990;2022-07-12T05:39:07;10.20;;;9.20;;
52620;SDS011;38515;53.160;6.990;2022-07-12T05:41:33;14.55;;;11.07;;
52620;SDS011;38515;53.160;6.990;2022-07-12T05:43:59;13.38;;;11.98;;
52620;SDS011;38515;53.160;6.990;2022-07-12T05:46:25;17.33;;;13.38;;
52620;SDS011;38515;53.160;6.990;2022-07-12T05:48:53;16.80;;;13.82;;
52620;SDS011;38515;53.160;6.990;2022-07-12T05:51:19;17.02;;;15.20;;
52620;SDS011;38515;53.160;6.990;2022-07-12T05:54:03;18.13;;;15.95;;
52620;SDS011;38515;53.160;6.990;2022-07-12T05:56:29;16.52;;;14.70;;
52620;SDS011;38515;53.160;6.990;2022-07-12T05:58:55;20.00;;;17.27;;
52620;SDS011;38515;53.160;6.990;2022-07-12T06:01:21;20.50;;;16.63;;
52620;SDS011;38515;53.160;6.990;2022-07-12T06:03:47;20.10;;;16.60;;
52620;SDS011;38515;53.160;6.990;2022-07-12T06:06:13;19.02;;;15.50;;
52620;SDS011;38515;53.160;6.990;2022-07-12T06:08:39;19.60;;;16.33;;
52620;SDS011;38515;53.160;6.990;2022-07-12T06:11:05;17.77;;;15.85;;
52620;SDS011;38515;53.160;6.990;2022-07-12T06:13:30;17.50;;;15.52;;
52620;SDS011;38515;53.160;6.990;2022-07-12T06:15:56;17.08;;;13.75;;
52620;SDS011;38515;53.160;6.990;2022-07-12T06:18:22;16.85;;;15.10;;
52620;SDS011;38515;53.160;6.990;2022-07-12T06:20:48;16.48;;;14.20;;
52620;SDS011;38515;53.160;6.990;2022-07-12T06:23:14;16.50;;;14.50;;
52620;SDS011;38515;53.160;6.990;2022-07-12T06:25:40;16.80;;;14.90;;
52620;SDS011;38515;53.160;6.990;2022-07-12T06:28:06;15.40;;;13.15;;
52620;SDS011;38515;53.160;6.990;2022-07-12T06:30:31;16.20;;;12.80;;
52620;SDS011;38515;53.160;6.990;2022-07-12T06:32:58;17.73;;;14.00;;
52620;SDS011;38515;53.160;6.990;2022-07-12T06:35:23;15.40;;;13.77;;
52620;SDS011;38515;53.160;6.990;2022-07-12T06:37:49;15.55;;;13.50;;
52620;SDS011;38515;53.160;6.990;2022-07-12T06:40:15;15.15;;;12.77;;
52620;SDS011;38515;53.160;6.990;2022-07-12T06:42:43;14.73;;;12.27;;
52620;SDS011;38515;53.160;6.990;2022-07-12T06:45:09;14.95;;;13.27;;
52620;SDS011;38515;53.160;6.990;2022-07-12T06:47:36;12.43;;;10.98;;
52620;SDS011;38515;53.160;6.990;2022-07-12T06:50:03;15.30;;;13.70;;
52620;SDS011;38515;53.160;6.990;2022-07-12T06:52:30;15.82;;;12.30;;
52620;SDS011;38515;53.160;6.990;2022-07-12T06:54:57;15.55;;;11.65;;
52620;SDS011;38515;53.160;6.990;2022-07-12T06:57:23;13.90;;;12.43;;
52620;SDS011;38515;53.160;6.990;2022-07-12T06:59:49;13.32;;;11.93;;
52620;SDS011;38515;53.160;6.990;2022-07-12T07:02:15;12.57;;;11.27;;
52620;SDS011;38515;53.160;6.990;2022-07-12T07:04:43;16.30;;;12.77;;
52620;SDS011;38515;53.160;6.990;2022-07-12T07:07:19;11.70;;;10.60;;
52620;SDS011;38515;53.160;6.990;2022-07-12T07:09:45;12.93;;;10.25;;
52620;SDS011;38515;53.160;6.990;2022-07-12T07:12:29;11.80;;;10.60;;
52620;SDS011;38515;53.160;6.990;2022-07-12T07:14:55;11.80;;;10.30;;
52620;SDS011;38515;53.160;6.990;2022-07-12T07:17:21;11.80;;;10.63;;
52620;SDS011;38515;53.160;6.990;2022-07-12T07:19:47;13.30;;;10.10;;
52620;SDS011;38515;53.160;6.990;2022-07-12T07:22:14;9.40;;;8.40;;
52620;SDS011;38515;53.160;6.990;2022-07-12T07:24:40;11.55;;;9.63;;
52620;SDS011;38515;53.160;6.990;2022-07-12T07:27:06;10.10;;;9.10;;
52620;SDS011;38515;53.160;6.990;2022-07-12T07:29:33;10.40;;;8.75;;
52620;SDS011;38515;53.160;6.990;2022-07-12T07:32:17;9.85;;;8.45;;
52620;SDS011;38515;53.160;6.990;2022-07-12T07:34:44;9.93;;;8.65;;
52620;SDS011;38515;53.160;6.990;2022-07-12T07:37:10;8.98;;;7.80;;
52620;SDS011;38515;53.160;6.990;2022-07-12T07:39:36;8.40;;;7.60;;
52620;SDS011;38515;53.160;6.990;2022-07-12T07:42:02;8.27;;;7.10;;
52620;SDS011;38515;53.160;6.990;2022-07-12T07:44:28;8.32;;;7.32;;
52620;SDS011;38515;53.160;6.990;2022-07-12T07:46:54;8.98;;;7.25;;
52620;SDS011;38515;53.160;6.990;2022-07-12T07:49:19;8.48;;;7.43;;
52620;SDS011;38515;53.160;6.990;2022-07-12T07:51:45;10.50;;;7.72;;
52620;SDS011;38515;53.160;6.990;2022-07-12T07:54:11;8.75;;;7.93;;
52620;SDS011;38515;53.160;6.990;2022-07-12T07:56:37;9.50;;;6.90;;
52620;SDS011;38515;53.160;6.990;2022-07-12T07:59:02;8.32;;;6.78;;
52620;SDS011;38515;53.160;6.990;2022-07-12T08:01:28;8.20;;;7.35;;
52620;SDS011;38515;53.160;6.990;2022-07-12T08:04:09;8.80;;;7.53;;
52620;SDS011;38515;53.160;6.990;2022-07-12T08:06:36;10.40;;;7.22;;
52620;SDS011;38515;53.160;6.990;2022-07-12T08:09:02;7.03;;;6.32;;
52620;SDS011;38515;53.160;6.990;2022-07-12T08:11:28;8.77;;;5.97;;
52620;SDS011;38515;53.160;6.990;2022-07-12T08:13:54;7.47;;;6.30;;
52620;SDS011;38515;53.160;6.990;2022-07-12T08:16:19;7.32;;;6.57;;
52620;SDS011;38515;53.160;6.990;2022-07-12T08:18:45;6.50;;;5.80;;
52620;SDS011;38515;53.160;6.990;2022-07-12T08:21:11;6.60;;;5.47;;
52620;SDS011;38515;53.160;6.990;2022-07-12T08:23:37;8.88;;;6.07;;
52620;SDS011;38515;53.160;6.990;2022-07-12T08:26:03;6.57;;;5.97;;
52620;SDS011;38515;53.160;6.990;2022-07-12T08:28:29;7.25;;;6.28;;
52620;SDS011;38515;53.160;6.990;2022-07-12T08:30:55;7.70;;;5.72;;
52620;SDS011;38515;53.160;6.990;2022-07-12T08:33:21;4.93;;;4.20;;
52620;SDS011;38515;53.160;6.990;2022-07-12T08:35:46;7.93;;;6.07;;
52620;SDS011;38515;53.160;6.990;2022-07-12T08:38:12;6.25;;;5.65;;
52620;SDS011;38515;53.160;6.990;2022-07-12T08:40:40;8.00;;;6.15;;
52620;SDS011;38515;53.160;6.990;2022-07-12T08:43:07;6.63;;;5.63;;
52620;SDS011;38515;53.160;6.990;2022-07-12T08:45:33;7.05;;;5.30;;
52620;SDS011;38515;53.160;6.990;2022-07-12T08:47:59;6.70;;;6.03;;
52620;SDS011;38515;53.160;6.990;2022-07-12T08:50:25;4.65;;;4.15;;
52620;SDS011;38515;53.160;6.990;2022-07-12T08:52:53;5.55;;;4.90;;
52620;SDS011;38515;53.160;6.990;2022-07-12T08:55:24;5.13;;;4.13;;
52620;SDS011;38515;53.160;6.990;2022-07-12T08:57:52;8.27;;;4.60;;
52620;SDS011;38515;53.160;6.990;2022-07-12T09:00:20;4.88;;;4.22;;
52620;SDS011;38515;53.160;6.990;2022-07-12T09:02:47;5.90;;;4.78;;
52620;SDS011;38515;53.160;6.990;2022-07-12T09:05:17;5.68;;;4.80;;
52620;SDS011;38515;53.160;6.990;2022-07-12T09:07:44;5.75;;;4.50;;
52620;SDS011;38515;53.160;6.990;2022-07-12T09:10:11;5.00;;;3.90;;
52620;SDS011;38515;53.160;6.990;2022-07-12T09:12:38;5.25;;;4.50;;
52620;SDS011;38515;53.160;6.990;2022-07-12T09:15:13;4.32;;;3.92;;
52620;SDS011;38515;53.160;6.990;2022-07-12T09:17:53;6.60;;;5.13;;
52620;SDS011;38515;53.160;6.990;2022-07-12T09:20:31;4.30;;;3.75;;
52620;SDS011;38515;53.160;6.990;2022-07-12T09:23:00;5.63;;;4.77;;
52620;SDS011;38515;53.160;6.990;2022-07-12T09:25:30;5.50;;;3.80;;
52620;SDS011;38515;53.160;6.990;2022-07-12T09:27:57;4.65;;;4.22;;
52620;SDS011;38515;53.160;6.990;2022-07-12T09:30:25;5.47;;;3.83;;
52620;SDS011;38515;53.160;6.990;2022-07-12T09:32:53;5.38;;;4.32;;
52620;SDS011;38515;53.160;6.990;2022-07-12T09:35:43;4.97;;;4.05;;
52620;SDS011;38515;53.160;6.990;2022-07-12T09:38:33;5.97;;;4.00;;
52620;SDS011;38515;53.160;6.990;2022-07-12T09:41:00;5.97;;;4.85;;
52620;SDS011;38515;53.160;6.990;2022-07-12T09:43:27;5.38;;;4.75;;
52620;SDS011;38515;53.160;6.990;2022-07-12T09:45:53;6.20;;;5.60;;
52620;SDS011;38515;53.160;6.990;2022-07-12T09:48:20;4.85;;;4.45;;
52620;SDS011;38515;53.160;6.990;2022-07-12T09:50:48;6.55;;;5.75;;
52620;SDS011;38515;53.160;6.990;2022-07-12T09:53:17;6.45;;;5.45;;
52620;SDS011;38515;53.160;6.990;2022-07-12T09:55:45;6.35;;;4.65;;
52620;SDS011;38515;53.160;6.990;2022-07-12T09:58:17;4.78;;;4.28;;
52620;SDS011;38515;53.160;6.990;2022-07-12T10:00:49;6.47;;;4.43;;
52620;SDS011;38515;53.160;6.990;2022-07-12T10:03:20;5.72;;;5.13;;
52620;SDS011;38515;53.160;6.990;2022-07-12T10:05:48;6.50;;;5.30;;
52620;SDS011;38515;53.160;6.990;2022-07-12T10:08:15;7.00;;;5.75;;
52620;SDS011;38515;53.160;6.990;2022-07-12T10:10:42;5.78;;;4.13;;
52620;SDS011;38515;53.160;6.990;2022-07-12T10:13:08;6.07;;;4.57;;
52620;SDS011;38515;53.160;6.990;2022-07-12T10:15:35;7.15;;;4.68;;
52620;SDS011;38515;53.160;6.990;2022-07-12T10:18:01;4.63;;;4.15;;
52620;SDS011;38515;53.160;6.990;2022-07-12T10:20:30;4.43;;;4.03;;
52620;SDS011;38515;53.160;6.990;2022-07-12T10:25:41;4.50;;;3.73;;
52620;SDS011;38515;53.160;6.990;2022-07-12T10:28:07;6.10;;;4.15;;
52620;SDS011;38515;53.160;6.990;2022-07-12T10:30:42;4.95;;;3.45;;
52620;SDS011;38515;53.160;6.990;2022-07-12T10:33:14;6.60;;;4.50;;
52620;SDS011;38515;53.160;6.990;2022-07-12T10:36:02;4.95;;;3.95;;
52620;SDS011;38515;53.160;6.990;2022-07-12T10:38:31;6.35;;;3.25;;
52620;SDS011;38515;53.160;6.990;2022-07-12T10:41:15;4.15;;;2.92;;
52620;SDS011;38515;53.160;6.990;2022-07-12T10:43:44;6.65;;;2.95;;
52620;SDS011;38515;53.160;6.990;2022-07-12T10:46:28;4.65;;;2.40;;
52620;SDS011;38515;53.160;6.990;2022-07-12T10:49:31;2.83;;;2.53;;
52620;SDS011;38515;53.160;6.990;2022-07-12T10:54:36;4.45;;;2.72;;
52620;SDS011;38515;53.160;6.990;2022-07-12T10:57:03;4.15;;;3.28;;
52620;SDS011;38515;53.160;6.990;2022-07-12T10:59:30;2.33;;;2.13;;
52620;SDS011;38515;53.160;6.990;2022-07-12T11:01:59;3.53;;;2.42;;
52620;SDS011;38515;53.160;6.990;2022-07-12T11:04:26;2.40;;;1.80;;
52620;SDS011;38515;53.160;6.990;2022-07-12T11:06:53;1.70;;;1.60;;
52620;SDS011;38515;53.160;6.990;2022-07-12T11:09:22;1.73;;;1.52;;
52620;SDS011;38515;53.160;6.990;2022-07-12T11:11:49;3.13;;;1.85;;
52620;SDS011;38515;53.160;6.990;2022-07-12T11:14:20;3.33;;;2.70;;
52620;SDS011;38515;53.160;6.990;2022-07-12T11:16:48;4.38;;;2.25;;
52620;SDS011;38515;53.160;6.990;2022-07-12T11:19:20;3.60;;;2.42;;
52620;SDS011;38515;53.160;6.990;2022-07-12T11:21:48;1.63;;;1.33;;
52620;SDS011;38515;53.160;6.990;2022-07-12T11:24:22;2.40;;;2.20;;
52620;SDS011;38515;53.160;6.990;2022-07-12T11:26:49;2.70;;;1.95;;
52620;SDS011;38515;53.160;6.990;2022-07-12T11:29:16;2.92;;;2.10;;
52620;SDS011;38515;53.160;6.990;2022-07-12T11:31:42;3.90;;;1.77;;
52620;SDS011;38515;53.160;6.990;2022-07-12T11:34:20;1.88;;;1.70;;
52620;SDS011;38515;53.160;6.990;2022-07-12T11:36:50;2.45;;;2.15;;
52620;SDS011;38515;53.160;6.990;2022-07-12T11:39:33;2.05;;;1.88;;
52620;SDS011;38515;53.160;6.990;2022-07-12T11:42:02;1.77;;;1.42;;
52620;SDS011;38515;53.160;6.990;2022-07-12T11:44:45;1.83;;;1.63;;
52620;SDS011;38515;53.160;6.990;2022-07-12T11:47:12;2.05;;;1.70;;
52620;SDS011;38515;53.160;6.990;2022-07-12T11:49:43;1.88;;;1.50;;
52620;SDS011;38515;53.160;6.990;2022-07-12T11:52:12;1.48;;;1.30;;
52620;SDS011;38515;53.160;6.990;2022-07-12T11:54:39;3.22;;;1.23;;
52620;SDS011;38515;53.160;6.990;2022-07-12T11:57:06;2.22;;;1.50;;
52620;SDS011;38515;53.160;6.990;2022-07-12T11:59:33;2.75;;;1.25;;
52620;SDS011;38515;53.160;6.990;2022-07-12T12:02:05;1.40;;;1.30;;
52620;SDS011;38515;53.160;6.990;2022-07-12T12:04:43;1.42;;;1.23;;
52620;SDS011;38515;53.160;6.990;2022-07-12T12:07:11;1.27;;;1.17;;
52620;SDS011;38515;53.160;6.990;2022-07-12T12:12:36;1.65;;;1.17;;
52620;SDS011;38515;53.160;6.990;2022-07-12T12:15:05;3.80;;;1.07;;
52620;SDS011;38515;53.160;6.990;2022-07-12T12:17:33;0.80;;;0.80;;
52620;SDS011;38515;53.160;6.990;2022-07-12T12:20:10;0.88;;;0.88;;
52620;SDS011;38515;53.160;6.990;2022-07-12T12:22:38;1.48;;;1.02;;
52620;SDS011;38515;53.160;6.990;2022-07-12T12:25:04;0.85;;;0.85;;
52620;SDS011;38515;53.160;6.990;2022-07-12T12:27:31;1.38;;;0.90;;
52620;SDS011;38515;53.160;6.990;2022-07-12T12:29:58;1.10;;;1.00;;
52620;SDS011;38515;53.160;6.990;2022-07-12T12:32:32;0.98;;;0.88;;
52620;SDS011;38515;53.160;6.990;2022-07-12T12:35:09;2.72;;;1.45;;
52620;SDS011;38515;53.160;6.990;2022-07-12T12:37:35;1.45;;;1.00;;
52620;SDS011;38515;53.160;6.990;2022-07-12T12:40:02;1.63;;;1.50;;
52620;SDS011;38515;53.160;6.990;2022-07-12T12:42:29;2.22;;;1.05;;
52620;SDS011;38515;53.160;6.990;2022-07-12T12:44:55;2.55;;;2.00;;
52620;SDS011;38515;53.160;6.990;2022-07-12T12:47:21;2.25;;;1.25;;
52620;SDS011;38515;53.160;6.990;2022-07-12T12:49:56;2.63;;;1.17;;
52620;SDS011;38515;53.160;6.990;2022-07-12T12:52:23;1.08;;;0.75;;
52620;SDS011;38515;53.160;6.990;2022-07-12T12:54:50;3.70;;;1.10;;
52620;SDS011;38515;53.160;6.990;2022-07-12T12:57:16;2.83;;;1.27;;
52620;SDS011;38515;53.160;6.990;2022-07-12T12:59:42;1.38;;;0.90;;
52620;SDS011;38515;53.160;6.990;2022-07-12T13:02:08;1.23;;;0.77;;
52620;SDS011;38515;53.160;6.990;2022-07-12T13:04:35;5.78;;;2.10;;
52620;SDS011;38515;53.160;6.990;2022-07-12T13:07:02;3.85;;;1.65;;
52620;SDS011;38515;53.160;6.990;2022-07-12T13:09:30;0.95;;;0.60;;
52620;SDS011;38515;53.160;6.990;2022-07-12T13:11:56;2.55;;;0.90;;
52620;SDS011;38515;53.160;6.990;2022-07-12T13:14:24;0.70;;;0.57;;
52620;SDS011;38515;53.160;6.990;2022-07-12T13:16:51;1.60;;;0.68;;
52620;SDS011;38515;53.160;6.990;2022-07-12T13:19:17;2.70;;;0.80;;
52620;SDS011;38515;53.160;6.990;2022-07-12T13:21:45;0.95;;;0.90;;
52620;SDS011;38515;53.160;6.990;2022-07-12T13:24:10;1.50;;;0.88;;
52620;SDS011;38515;53.160;6.990;2022-07-12T13:26:36;0.70;;;0.70;;
52620;SDS011;38515;53.160;6.990;2022-07-12T13:29:03;0.70;;;0.70;;
52620;SDS011;38515;53.160;6.990;2022-07-12T13:31:29;6.07;;;2.53;;
52620;SDS011;38515;53.160;6.990;2022-07-12T13:33:54;1.90;;;1.13;;
52620;SDS011;38515;53.160;6.990;2022-07-12T13:36:21;0.93;;;0.73;;
52620;SDS011;38515;53.160;6.990;2022-07-12T13:38:47;5.28;;;1.45;;
52620;SDS011;38515;53.160;6.990;2022-07-12T13:41:14;0.85;;;0.70;;
52620;SDS011;38515;53.160;6.990;2022-07-12T13:43:40;1.48;;;0.80;;
52620;SDS011;38515;53.160;6.990;2022-07-12T13:46:05;1.63;;;1.15;;
52620;SDS011;38515;53.160;6.990;2022-07-12T13:48:31;2.72;;;0.90;;
52620;SDS011;38515;53.160;6.990;2022-07-12T13:50:58;0.95;;;0.73;;
52620;SDS011;38515;53.160;6.990;2022-07-12T13:53:24;1.23;;;0.90;;
52620;SDS011;38515;53.160;6.990;2022-07-12T13:55:50;0.47;;;0.47;;
52620;SDS011;38515;53.160;6.990;2022-07-12T13:58:16;0.93;;;0.57;;
52620;SDS011;38515;53.160;6.990;2022-07-12T14:00:42;0.70;;;0.50;;
52620;SDS011;38515;53.160;6.990;2022-07-12T14:03:08;1.05;;;0.68;;
52620;SDS011;38515;53.160;6.990;2022-07-12T14:05:34;0.47;;;0.40;;
52620;SDS011;38515;53.160;6.990;2022-07-12T14:08:02;1.02;;;0.50;;
52620;SDS011;38515;53.160;6.990;2022-07-12T14:10:28;0.50;;;0.50;;
52620;SDS011;38515;53.160;6.990;2022-07-12T14:12:54;0.80;;;0.57;;
52620;SDS011;38515;53.160;6.990;2022-07-12T14:15:20;1.15;;;0.52;;
52620;SDS011;38515;53.160;6.990;2022-07-12T14:18:04;2.83;;;0.63;;
52620;SDS011;38515;53.160;6.990;2022-07-12T14:20:31;1.70;;;0.75;;
52620;SDS011;38515;53.160;6.990;2022-07-12T14:22:58;1.08;;;0.90;;
52620;SDS011;38515;53.160;6.990;2022-07-12T14:25:24;4.22;;;1.02;;
52620;SDS011;38515;53.160;6.990;2022-07-12T14:27:50;0.82;;;0.75;;
52620;SDS011;38515;53.160;6.990;2022-07-12T14:30:16;1.20;;;0.65;;
52620;SDS011;38515;53.160;6.990;2022-07-12T14:32:42;2.70;;;0.60;;
52620;SDS011;38515;53.160;6.990;2022-07-12T14:35:09;3.53;;;0.88;;
52620;SDS011;38515;53.160;6.990;2022-07-12T14:37:35;1.30;;;0.90;;
52620;SDS011;38515;53.160;6.990;2022-07-12T14:40:03;1.95;;;0.90;;
52620;SDS011;38515;53.160;6.990;2022-07-12T14:42:30;1.02;;;0.70;;
52620;SDS011;38515;53.160;6.990;2022-07-12T14:44:56;2.05;;;1.02;;
52620;SDS011;38515;53.160;6.990;2022-07-12T14:47:22;0.82;;;0.77;;